Time;durP1;ratioP1;P1;durP2;ratioP2;P2;SDS_P1;SDS_P2;PMS_P1;PMS_P2;Temp;Humidity;BMP_temperature;BMP_pressure;BME280_temperature;BME280_humidity;BME280_pressure;Samples;Min_cycle;Max_cycle;Signal;HPM_P1;HPM_P2
2021/11/07 00:05:06;;;;;;;;;;;;;;;10.13;68.59;100706.59;5053186;28;20045;-89
2021/11/07 00:10:25;;;;;;;8.48;7.20;;;;;;;10.06;69.29;100705.13;5065344;28;20052;-89
2021/11/07 00:12:59;;;;;;;12.10;7.38;;;;;;;9.96;70.17;100717.69;5055771;28;20091;-90
2021/11/07 00:15:26;;;;;;;16.45;10.45;;;;;;;9.93;70.33;100729.06;5053880;28;20094;-87
2021/11/07 00:17:57;;;;;;;12.55;8.73;;;;;;;10.05;70.35;100719.06;5054154;28;20041;-90
2021/11/07 00:20:31;;;;;;;9.52;7.70;;;;;;;9.80;71.38;100707.03;5052205;28;20044;-90
2021/11/07 00:23:21;;;;;;;9.75;7.30;;;;;;;9.70;74.06;100701.34;5053333;28;20040;-89
2021/11/07 00:25:54;;;;;;;16.20;9.30;;;;;;;9.66;74.72;100685.91;5053259;28;20446;-90
2021/11/07 00:28:29;;;;;;;14.55;9.15;;;;;;;9.71;75.13;100683.97;5053980;28;20041;-90
2021/11/07 00:31:07;;;;;;;8.05;6.85;;;;;;;9.94;74.20;100678.66;5052715;28;20045;-90
2021/11/07 00:36:32;;;;;;;11.20;8.82;;;;;;;9.84;75.40;100637.44;5041828;28;20053;-89
2021/11/07 00:39:09;;;;;;;10.63;7.32;;;;;;;9.88;75.98;100639.88;5057862;28;20041;-90
2021/11/07 00:47:37;;;;;;;11.57;6.75;;;;;;;9.81;77.94;100620.22;5040206;28;20103;-90
2021/11/07 00:50:12;;;;;;;10.37;6.70;;;;;;;10.06;76.40;100632.19;5053508;28;20464;-91
2021/11/07 00:52:52;;;;;;;7.40;6.35;;;;;;;10.11;75.05;100625.88;5052417;28;20299;-91
2021/11/07 00:55:26;;;;;;;9.02;7.25;;;;;;;10.12;74.15;100621.50;5052521;28;20045;-91
2021/11/07 01:03:02;;;;;;;10.45;7.32;;;;;;;9.91;71.37;100611.09;5053517;28;20041;-90
2021/11/07 01:05:32;;;;;;;9.60;8.30;;;;;;;10.07;70.90;100607.88;5053595;28;20040;-88
2021/11/07 01:07:59;;;;;;;8.63;7.57;;;;;;;10.08;71.52;100612.16;5052546;28;20466;-89
2021/11/07 01:10:27;;;;;;;10.43;8.30;;;;;;;10.16;70.73;100608.31;5053295;28;20048;-90
2021/11/07 01:12:55;;;;;;;9.30;7.20;;;;;;;10.18;70.14;100622.13;5052009;28;20041;-91
2021/11/07 01:15:23;;;;;;;9.38;7.47;;;;;;;10.20;70.11;100629.88;5051625;28;20056;-91
2021/11/07 01:17:54;;;;;;;8.80;6.55;;;;;;;10.12;70.66;100643.22;5051968;28;20041;-92
2021/11/07 01:20:44;;;;;;;10.65;7.20;;;;;;;10.12;70.75;100647.56;5051232;28;20052;-92
2021/11/07 01:23:18;;;;;;;11.30;8.20;;;;;;;10.13;70.29;100662.31;5053199;28;20526;-92
2021/11/07 01:25:51;;;;;;;9.82;7.82;;;;;;;9.91;69.00;100650.16;5050828;28;20381;-91
2021/11/07 01:28:19;;;;;;;11.07;8.33;;;;;;;9.81;69.31;100651.44;5045369;28;20041;-91
2021/11/07 01:30:58;;;;;;;7.90;6.70;;;;;;;9.67;70.31;100638.97;5032315;28;20292;-91
2021/11/07 01:33:27;;;;;;;8.43;7.10;;;;;;;9.62;72.33;100621.84;5031519;28;20045;-92
2021/11/07 01:39:02;;;;;;;15.82;9.55;;;;;;;9.58;74.21;100636.72;5033315;28;20048;-90
2021/11/07 01:41:44;;;;;;;10.30;8.05;;;;;;;9.60;74.71;100636.69;5033135;28;20468;-89
2021/11/07 01:44:13;;;;;;;9.40;7.45;;;;;;;9.48;75.62;100634.53;5035118;28;20049;-88
2021/11/07 01:46:47;;;;;;;12.38;7.80;;;;;;;9.38;76.60;100629.72;5031095;28;20049;-91
2021/11/07 01:49:19;;;;;;;13.40;7.97;;;;;;;9.29;77.91;100616.22;5033058;28;20048;-88
2021/11/07 01:51:48;;;;;;;11.48;8.25;;;;;;;9.21;78.31;100626.91;5032318;28;20041;-90
2021/11/07 01:56:49;;;;;;;9.95;8.85;;;;;;;9.10;79.84;100605.66;5033299;28;20041;-91
2021/11/07 01:59:16;;;;;;;10.38;8.93;;;;;;;9.11;80.65;100613.44;5033029;28;20404;-92
2021/11/07 02:01:49;;;;;;;8.70;7.80;;;;;;;9.02;80.72;100612.91;5032621;28;20049;-90
2021/11/07 02:04:15;;;;;;;24.38;10.02;;;;;;;9.09;81.05;100617.81;5032690;28;20046;-90
2021/11/07 02:06:42;;;;;;;11.70;9.70;;;;;;;9.15;81.27;100607.19;5031963;28;20037;-90
2021/11/07 02:09:09;;;;;;;11.32;9.85;;;;;;;8.91;81.65;100595.13;5032013;28;20092;-90
2021/11/07 02:11:36;;;;;;;10.20;9.07;;;;;;;8.84;81.64;100586.72;5033249;28;20098;-90
2021/11/07 02:14:03;;;;;;;9.95;8.95;;;;;;;9.00;81.51;100596.50;5034120;28;20038;-90
2021/11/07 02:16:30;;;;;;;11.48;9.07;;;;;;;9.21;80.93;100595.69;5036541;28;20064;-90
2021/11/07 02:18:57;;;;;;;9.60;8.63;;;;;;;9.02;81.10;100600.75;5035290;28;20048;-90
2021/11/07 02:21:24;;;;;;;12.75;8.90;;;;;;;9.05;80.94;100586.78;5034722;28;20064;-91
2021/11/07 02:23:57;;;;;;;11.77;8.93;;;;;;;9.14;79.98;100600.28;5036498;28;20037;-93
2021/11/07 02:26:24;;;;;;;12.80;8.75;;;;;;;9.09;80.27;100597.00;5036400;28;20099;-92
2021/11/07 02:28:51;;;;;;;13.48;8.45;;;;;;;9.13;80.15;100597.75;5037058;28;20068;-92
2021/11/07 02:31:18;;;;;;;14.07;8.38;;;;;;;9.13;80.55;100592.56;5034431;28;20041;-93
2021/11/07 02:33:46;;;;;;;9.35;7.82;;;;;;;9.13;80.20;100584.75;5035840;28;20049;-92
2021/11/07 02:36:16;;;;;;;10.15;8.02;;;;;;;9.10;80.47;100571.84;5035901;28;20120;-92
2021/11/07 02:38:45;;;;;;;11.07;9.07;;;;;;;9.22;79.13;100561.00;5035759;28;20033;-92
2021/11/07 02:41:12;;;;;;;9.68;8.32;;;;;;;8.91;81.12;100559.56;5035131;28;20047;-89
2021/11/07 02:43:44;;;;;;;8.95;8.05;;;;;;;8.83;81.99;100538.19;5036027;28;20064;-92
2021/11/07 02:46:18;;;;;;;11.32;8.95;;;;;;;8.70;83.12;100534.38;5035193;28;20095;-90
2021/11/07 02:49:01;;;;;;;10.13;8.70;;;;;;;8.83;83.02;100553.81;5035510;28;20064;-91
2021/11/07 02:51:35;;;;;;;10.18;9.00;;;;;;;8.94;82.48;100561.19;5034181;28;20069;-91
2021/11/07 02:54:05;;;;;;;8.90;7.95;;;;;;;8.88;83.24;100561.44;5034647;28;20111;-91
2021/11/07 02:56:33;;;;;;;11.23;8.48;;;;;;;8.99;82.92;100580.06;5035718;28;20132;-92
2021/11/07 02:59:00;;;;;;;9.45;8.27;;;;;;;9.14;82.16;100589.03;5045226;28;20108;-91
2021/11/07 03:01:28;;;;;;;11.82;9.43;;;;;;;9.13;82.69;100592.56;5046777;28;20046;-89
2021/11/07 03:04:01;;;;;;;9.20;8.30;;;;;;;9.10;81.24;100605.66;5040034;28;20127;-92
2021/11/07 03:06:33;;;;;;;9.07;8.10;;;;;;;9.15;80.86;100607.19;5036008;28;20049;-91
2021/11/07 03:09:03;;;;;;;11.93;8.40;;;;;;;8.97;81.04;100599.25;5035635;28;20041;-90
2021/11/07 03:11:30;;;;;;;10.48;7.65;;;;;;;8.88;81.51;100611.66;5035525;28;20049;-90
2021/11/07 03:14:04;;;;;;;8.73;7.82;;;;;;;8.95;82.12;100608.84;5034584;28;20049;-90
2021/11/07 03:16:31;;;;;;;11.45;9.25;;;;;;;8.90;82.62;100607.28;5035563;28;20068;-91
2021/11/07 03:18:58;;;;;;;13.90;8.68;;;;;;;9.19;81.41;100608.75;5034842;28;20480;-89
2021/11/07 03:21:25;;;;;;;8.82;7.93;;;;;;;8.83;82.52;100597.16;5035287;28;20054;-90
2021/11/07 03:23:57;;;;;;;15.30;9.45;;;;;;;8.69;83.97;100599.44;5034804;28;20116;-91
2021/11/07 03:26:26;;;;;;;10.18;8.40;;;;;;;8.59;84.83;100610.16;5033618;28;20099;-92
2021/11/07 03:28:59;;;;;;;10.68;8.40;;;;;;;8.95;83.71;100603.63;5034792;28;20034;-91
2021/11/07 03:34:19;;;;;;;10.02;8.73;;;;;;;8.92;83.10;100600.25;5033313;28;20045;-89
2021/11/07 03:36:49;;;;;;;;;;;;;;;9.23;81.53;100603.47;5034173;28;20045;-89
2021/11/07 03:39:17;;;;;;;10.93;8.70;;;;;;;9.38;80.64;100595.06;5034684;28;19924;-91
2021/11/07 03:41:45;;;;;;;9.82;8.20;;;;;;;9.19;81.26;100584.50;5044332;28;20053;-91
2021/11/07 03:44:15;;;;;;;9.90;8.88;;;;;;;8.93;82.25;100570.75;5044150;28;20033;-91
2021/11/07 03:46:44;;;;;;;11.68;8.68;;;;;;;8.80;83.19;100556.53;5067496;28;20055;-92
2021/11/07 03:49:11;;;;;;;10.30;8.55;;;;;;;8.61;84.73;100558.97;5054245;28;20037;-90
2021/11/07 03:51:39;;;;;;;13.23;9.80;;;;;;;8.60;85.63;100553.81;5053816;28;20067;-92
2021/11/07 03:54:08;;;;;;;9.65;8.15;;;;;;;8.48;85.64;100551.69;5054365;28;20053;-92
2021/11/07 03:56:35;;;;;;;10.85;7.97;;;;;;;8.72;85.11;100555.13;5053845;28;20052;-91
2021/11/07 03:59:02;;;;;;;13.27;8.32;;;;;;;8.89;84.43;100558.78;5055283;28;20033;-91
2021/11/07 04:01:29;;;;;;;10.98;8.00;;;;;;;9.04;83.71;100572.94;5053486;28;20434;-91
2021/11/07 04:03:56;;;;;;;10.98;8.88;;;;;;;9.03;83.73;100565.22;5053984;28;20033;-90
2021/11/07 04:06:23;;;;;;;11.07;8.73;;;;;;;8.68;84.96;100554.38;5052828;28;20495;-90
2021/11/07 04:08:50;;;;;;;9.75;8.00;;;;;;;8.72;85.19;100552.50;5053732;28;20262;-89
2021/11/07 04:11:18;;;;;;;10.57;8.68;;;;;;;8.70;84.91;100547.38;5052648;28;20045;-89
2021/11/07 04:13:47;;;;;;;9.80;8.10;;;;;;;8.80;85.21;100551.34;5053472;28;20033;-90
2021/11/07 04:16:15;;;;;;;9.40;8.20;;;;;;;8.92;84.66;100556.06;5053778;28;20506;-89
2021/11/07 04:18:44;;;;;;;9.98;8.48;;;;;;;8.95;84.31;100565.50;5053120;28;20033;-89
2021/11/07 04:21:12;;;;;;;15.30;8.98;;;;;;;9.02;83.18;100566.13;5052087;28;20083;-89
2021/11/07 04:23:39;;;;;;;14.88;9.90;;;;;;;8.98;82.23;100567.13;5052109;28;20073;-90
2021/11/07 04:26:06;;;;;;;9.57;8.18;;;;;;;8.79;82.84;100561.75;5051854;28;20399;-90
2021/11/07 04:28:33;;;;;;;11.30;8.73;;;;;;;8.86;82.34;100568.44;5051798;28;20049;-90
2021/11/07 04:31:00;;;;;;;10.55;8.95;;;;;;;8.89;81.50;100574.41;5051359;28;20534;-90
2021/11/07 04:33:27;;;;;;;10.20;8.85;;;;;;;8.99;80.68;100576.63;5053400;28;20041;-90
2021/11/07 04:35:58;;;;;;;10.25;9.15;;;;;;;8.84;81.00;100539.03;5050911;28;20033;-90
2021/11/07 04:38:27;;;;;;;13.63;10.00;;;;;;;8.98;79.58;100531.56;5043446;28;20041;-90
2021/11/07 04:40:54;;;;;;;11.00;9.18;;;;;;;8.73;80.89;100521.25;5047778;28;20424;-88
2021/11/07 04:43:21;;;;;;;9.75;8.55;;;;;;;8.71;81.73;100506.66;5052867;28;20051;-88
2021/11/07 04:45:48;;;;;;;16.23;9.88;;;;;;;8.72;82.52;100513.53;5051489;28;20044;-89
2021/11/07 04:48:15;;;;;;;11.07;9.05;;;;;;;8.98;80.68;100535.94;5053018;28;20039;-87
2021/11/07 04:50:42;;;;;;;11.73;10.57;;;;;;;9.08;79.42;100552.88;5052343;28;20041;-87
2021/11/07 04:53:10;;;;;;;10.38;9.25;;;;;;;9.28;77.96;100546.91;5053419;28;20041;-88
2021/11/07 04:55:41;;;;;;;10.27;9.18;;;;;;;9.22;74.18;100545.38;5052235;28;20088;-88
2021/11/07 04:58:08;;;;;;;11.75;9.98;;;;;;;9.23;73.65;100552.28;5034654;28;20044;-88
2021/11/07 05:00:36;;;;;;;9.63;8.70;;;;;;;9.35;72.28;100549.19;5052624;28;20052;-89
2021/11/07 05:03:05;;;;;;;15.25;8.30;;;;;;;9.16;72.17;100553.41;5053013;28;20044;-89
2021/11/07 05:05:33;;;;;;;13.23;8.43;;;;;;;9.35;71.03;100561.34;5052668;28;20068;-90
2021/11/07 05:08:00;;;;;;;10.68;8.88;;;;;;;9.11;71.00;100551.00;5051782;28;20063;-90
2021/11/07 05:10:27;;;;;;;9.65;8.45;;;;;;;9.06;71.57;100549.50;5053117;28;20099;-90
2021/11/07 05:12:54;;;;;;;10.07;8.20;;;;;;;9.07;71.63;100549.44;5068127;28;20051;-92
2021/11/07 05:15:21;;;;;;;11.52;7.97;;;;;;;9.22;71.87;100550.59;5053045;28;20071;-90
2021/11/07 05:17:48;;;;;;;9.45;8.52;;;;;;;9.13;72.11;100545.75;5051147;28;20060;-90
2021/11/07 05:20:15;;;;;;;10.00;8.80;;;;;;;9.15;71.78;100530.91;5052656;28;20044;-91
2021/11/07 05:22:43;;;;;;;8.48;7.57;;;;;;;9.36;70.41;100543.06;5053189;28;20473;-91
2021/11/07 05:25:12;;;;;;;9.02;8.23;;;;;;;9.08;72.03;100556.31;5053095;28;20069;-91
2021/11/07 05:27:42;;;;;;;10.95;8.82;;;;;;;9.03;72.21;100566.03;5052719;28;20476;-92
2021/11/07 05:30:11;;;;;;;8.85;7.95;;;;;;;9.05;72.72;100563.38;5051855;28;20045;-91
2021/11/07 05:32:39;;;;;;;8.88;7.97;;;;;;;8.92;74.16;100568.22;5053149;28;20103;-89
2021/11/07 05:35:06;;;;;;;14.02;9.65;;;;;;;8.74;75.84;100559.38;5052548;28;20037;-90
2021/11/07 05:37:33;;;;;;;10.63;9.18;;;;;;;8.73;77.63;100547.25;5053018;28;20056;-91
2021/11/07 05:40:00;;;;;;;8.63;7.72;;;;;;;9.04;76.94;100561.69;5052805;28;20045;-88
2021/11/07 05:42:27;;;;;;;10.20;8.65;;;;;;;9.08;76.97;100569.31;5053248;28;20095;-89
2021/11/07 05:44:54;;;;;;;8.98;8.07;;;;;;;9.18;76.71;100572.41;5052440;28;20048;-91
2021/11/07 05:47:20;;;;;;;12.68;9.38;;;;;;;9.06;77.18;100585.91;5057415;28;20249;-90
2021/11/07 05:49:48;;;;;;;11.55;9.32;;;;;;;8.81;78.86;100576.41;5065096;28;20541;-89
2021/11/07 05:52:17;;;;;;;10.23;8.77;;;;;;;8.98;78.87;100588.78;5062770;28;20495;-90
2021/11/07 05:54:44;;;;;;;10.32;8.65;;;;;;;8.96;79.06;100585.41;5056466;28;20057;-89
2021/11/07 05:57:11;;;;;;;11.95;9.25;;;;;;;9.05;78.52;100584.19;5056741;28;20053;-90
2021/11/07 05:59:39;;;;;;;10.32;8.55;;;;;;;8.95;79.37;100586.31;5056928;28;20037;-90
2021/11/07 06:02:06;;;;;;;11.88;9.05;;;;;;;8.89;79.98;100579.59;5055339;28;20041;-89
2021/11/07 06:04:33;;;;;;;9.52;8.52;;;;;;;8.83;80.56;100574.59;5038960;28;20163;-85
2021/11/07 06:07:01;;;;;;;9.25;8.20;;;;;;;8.73;81.60;100575.84;5046069;28;20132;-83
2021/11/07 06:09:28;;;;;;;12.40;8.55;;;;;;;8.61;83.62;100581.50;5054176;28;20052;-84
2021/11/07 06:11:55;;;;;;;12.27;10.35;;;;;;;8.69;83.65;100582.09;5054117;28;20463;-83
2021/11/07 06:14:22;;;;;;;10.60;8.90;;;;;;;8.70;84.20;100577.72;5054723;28;20453;-83
2021/11/07 06:16:49;;;;;;;11.85;7.38;;;;;;;8.89;83.37;100582.19;5056026;28;20048;-84
2021/11/07 06:19:15;;;;;;;13.18;8.90;;;;;;;9.03;82.38;100575.59;5056460;28;20052;-84
2021/11/07 06:21:43;;;;;;;11.05;8.60;;;;;;;9.02;82.48;100573.91;5054989;28;20041;-87
2021/11/07 06:24:12;;;;;;;11.38;9.32;;;;;;;8.82;82.71;100572.91;5054176;28;20041;-88
2021/11/07 06:26:39;;;;;;;9.38;8.40;;;;;;;8.88;82.38;100579.63;5049813;28;20396;-88
2021/11/07 06:29:09;;;;;;;10.93;9.85;;;;;;;8.57;84.12;100587.72;5052080;28;20051;-86
2021/11/07 06:31:35;;;;;;;12.82;9.43;;;;;;;8.49;85.01;100584.56;5051423;28;20032;-86
2021/11/07 06:34:03;;;;;;;9.98;8.98;;;;;;;8.92;83.62;100592.47;5047693;28;20037;-88
2021/11/07 06:36:29;;;;;;;12.10;8.55;;;;;;;8.84;83.87;100591.91;5054185;28;20049;-85
2021/11/07 06:38:57;;;;;;;10.63;8.82;;;;;;;8.77;84.44;100589.59;5046266;28;21101;-85
2021/11/07 06:41:24;;;;;;;10.50;8.73;;;;;;;8.76;84.86;100585.28;5051886;28;20049;-85
2021/11/07 06:43:51;;;;;;;14.45;9.13;;;;;;;9.06;83.09;100585.91;5052732;28;20135;-86
2021/11/07 06:46:18;;;;;;;10.50;9.13;;;;;;;8.86;83.78;100590.09;5051596;28;20072;-86
2021/11/07 06:48:45;;;;;;;10.23;8.40;;;;;;;9.08;82.50;100594.47;5052701;28;20041;-84
2021/11/07 06:51:12;;;;;;;10.68;9.63;;;;;;;9.06;81.91;100580.69;5053097;28;20084;-85
2021/11/07 06:53:39;;;;;;;9.82;8.27;;;;;;;8.98;83.75;100577.53;5052723;28;20033;-86
2021/11/07 06:56:07;;;;;;;10.00;9.00;;;;;;;9.20;82.19;100588.78;5052423;28;20049;-88
2021/11/07 06:58:33;;;;;;;10.52;9.40;;;;;;;9.15;82.48;100590.72;5051699;28;20442;-87
2021/11/07 07:01:00;;;;;;;11.70;9.55;;;;;;;9.18;82.18;100590.63;5046305;28;20063;-86
2021/11/07 07:03:27;;;;;;;11.88;8.45;;;;;;;9.36;82.12;100595.09;5052530;28;20047;-87
2021/11/07 07:05:54;;;;;;;9.75;8.80;;;;;;;9.27;81.79;100598.06;5052406;28;20029;-84
2021/11/07 07:08:25;;;;;;;13.73;9.10;;;;;;;9.19;83.05;100600.13;5053722;28;20045;-85
2021/11/07 07:11:00;;;;;;;14.82;9.30;;;;;;;9.17;82.90;100599.34;5048188;28;20037;-85
2021/11/07 07:13:32;;;;;;;10.75;9.65;;;;;;;8.96;83.63;100600.16;5048359;28;20049;-86
2021/11/07 07:24:16;;;;;;;11.15;10.05;;;;;;;9.34;82.03;100596.06;5050134;28;20037;-84
2021/11/07 07:31:53;;;;;;;9.32;8.23;;;;;;;9.27;83.18;100586.78;5048963;28;20041;-85
2021/11/07 07:34:24;;;;;;;9.27;8.13;;;;;;;9.13;84.38;100587.34;5064668;28;20044;-84
2021/11/07 07:36:53;;;;;;;9.35;8.35;;;;;;;9.65;81.84;100588.75;5050207;28;20048;-85
2021/11/07 07:39:21;;;;;;;9.82;8.25;;;;;;;9.83;80.62;100576.72;5047200;28;20049;-83
2021/11/07 07:41:51;;;;;;;11.20;8.25;;;;;;;9.93;79.89;100566.75;5045135;28;20399;-84
2021/11/07 07:44:19;;;;;;;11.52;9.32;;;;;;;10.01;79.20;100574.25;5061400;28;20162;-84
2021/11/07 07:46:48;;;;;;;14.95;10.38;;;;;;;9.89;80.47;100562.59;5046151;28;20579;-84
2021/11/07 07:49:17;;;;;;;11.20;9.73;;;;;;;10.01;80.12;100569.03;5049228;28;20044;-83
2021/11/07 07:51:46;;;;;;;8.50;7.63;;;;;;;9.89;77.20;100575.59;5050555;28;20115;-84
2021/11/07 07:54:14;;;;;;;9.50;7.53;;;;;;;10.05;73.37;100574.06;5045047;28;20111;-85
2021/11/07 07:56:41;;;;;;;16.33;10.20;;;;;;;10.16;71.84;100576.19;5045098;28;20423;-82
2021/11/07 07:59:10;;;;;;;12.27;9.18;;;;;;;10.07;72.46;100572.25;5051628;28;20428;-83
2021/11/07 08:01:38;;;;;;;7.43;5.90;;;;;;;10.16;70.20;100560.56;5047309;28;20492;-81
2021/11/07 08:04:05;;;;;;;6.60;5.10;;;;;;;10.37;68.35;100569.25;5048916;28;20033;-83
2021/11/07 08:06:32;;;;;;;9.25;8.35;;;;;;;10.07;74.63;100572.25;5050720;28;20103;-82
2021/11/07 08:08:59;;;;;;;11.30;10.10;;;;;;;9.51;80.42;100569.38;5050623;28;20041;-83
2021/11/07 08:11:28;;;;;;;12.23;9.65;;;;;;;9.66;80.17;100566.16;5049757;28;20555;-85
2021/11/07 08:13:58;;;;;;;12.30;9.27;;;;;;;10.08;78.40;100567.88;5051452;28;20045;-84
2021/11/07 08:16:26;;;;;;;13.77;9.43;;;;;;;10.04;78.00;100559.34;5049115;28;20041;-85
2021/11/07 08:18:53;;;;;;;10.63;9.52;;;;;;;10.16;77.87;100553.59;5049585;28;20293;-85
2021/11/07 08:21:20;;;;;;;9.90;7.60;;;;;;;10.37;74.08;100562.25;5050853;28;20045;-90
2021/11/07 08:23:49;;;;;;;8.23;7.15;;;;;;;10.44;71.40;100558.50;5053533;28;20395;-92
2021/11/07 08:26:17;;;;;;;8.63;7.30;;;;;;;10.56;69.94;100554.50;5052222;28;20103;-89
2021/11/07 08:28:45;;;;;;;7.38;6.65;;;;;;;10.56;68.61;100551.03;5046696;28;20487;-91
2021/11/07 08:31:21;;;;;;;10.50;7.05;;;;;;;10.57;65.52;100550.13;5052673;28;20044;-87
2021/11/07 08:33:48;;;;;;;9.38;6.85;;;;;;;10.55;64.62;100546.75;5052578;28;20041;-90
2021/11/07 08:36:21;;;;;;;7.85;6.60;;;;;;;10.52;64.92;100531.22;5062072;28;20041;-88
2021/11/07 08:38:53;;;;;;;9.82;6.88;;;;;;;10.46;65.18;100529.75;5052230;28;20410;-89
2021/11/07 08:41:22;;;;;;;7.40;6.50;;;;;;;10.31;66.10;100526.06;5048275;28;20037;-88
2021/11/07 09:01:15;;;;;;;15.02;9.38;;;;;;;10.56;74.39;100502.34;5049547;28;20469;-90
2021/11/07 09:03:48;;;;;;;12.68;8.30;;;;;;;10.63;75.97;100495.09;5048798;28;20495;-88
2021/11/07 09:08:49;;;;;;;9.40;7.60;;;;;;;11.19;70.89;100491.56;5048754;28;20128;-87
2021/11/07 09:11:19;;;;;;;11.10;8.32;;;;;;;11.33;69.63;100493.50;5048499;28;20045;-89
2021/11/07 09:13:48;;;;;;;11.77;7.82;;;;;;;11.01;69.72;100490.69;5046669;28;20098;-89
2021/11/07 09:16:15;;;;;;;14.25;6.88;;;;;;;11.53;67.88;100488.13;5050088;28;20040;-90
2021/11/07 09:18:43;;;;;;;8.20;6.60;;;;;;;11.73;66.09;100487.13;5053025;28;20469;-89
2021/11/07 09:23:53;;;;;;;8.68;7.05;;;;;;;12.23;62.83;100491.53;5051558;28;20098;-91
2021/11/07 09:29:09;;;;;;;15.80;6.18;;;;;;;11.18;63.08;100495.06;5052357;28;20047;-90
2021/11/07 09:31:54;;;;;;;6.63;5.20;;;;;;;11.30;61.13;100491.88;5048778;28;20041;-90
2021/11/07 09:34:37;;;;;;;6.20;5.43;;;;;;;11.30;61.84;100476.22;5043496;28;20063;-90
2021/11/07 09:37:12;;;;;;;6.45;5.00;;;;;;;11.10;61.58;100478.97;5052013;28;20041;-91
2021/11/07 09:39:50;;;;;;;8.02;5.47;;;;;;;11.17;60.88;100477.75;5050105;28;20050;-92
2021/11/07 09:42:32;;;;;;;6.40;5.53;;;;;;;11.05;62.04;100479.19;5048562;28;20060;-91
2021/11/07 09:45:11;;;;;;;5.65;5.05;;;;;;;11.19;61.41;100474.16;5046438;28;20037;-89
2021/11/07 09:47:41;;;;;;;6.85;5.53;;;;;;;11.44;61.65;100471.16;5046990;28;20046;-92
2021/11/07 09:50:12;;;;;;;8.52;6.10;;;;;;;11.14;61.84;100483.97;5043411;28;20037;-90
2021/11/07 09:52:45;;;;;;;6.13;5.50;;;;;;;11.24;62.63;100484.38;5059440;28;20049;-94
2021/11/07 09:55:14;;;;;;;8.38;6.82;;;;;;;10.95;62.75;100484.00;5046122;28;20046;-90
2021/11/07 09:57:42;;;;;;;17.35;10.63;;;;;;;10.97;63.90;100476.97;5047649;28;20124;-93
2021/11/07 10:00:17;;;;;;;11.80;8.90;;;;;;;11.10;62.96;100468.53;5047447;28;20045;-91
2021/11/07 10:02:44;;;;;;;14.57;8.98;;;;;;;11.37;62.95;100469.78;5045472;28;20081;-87
2021/11/07 10:05:12;;;;;;;23.35;13.63;;;;;;;11.02;63.62;100463.66;5047939;28;20037;-87
2021/11/07 10:07:41;;;;;;;30.85;13.57;;;;;;;11.20;62.50;100464.56;5048819;28;20488;-87
2021/11/07 10:10:20;;;;;;;27.77;15.13;;;;;;;11.40;61.77;100453.97;5047059;28;20064;-88
2021/11/07 10:12:50;;;;;;;20.80;12.63;;;;;;;11.31;62.10;100446.59;5045598;28;20091;-90
2021/11/07 10:15:29;;;;;;;14.45;10.48;;;;;;;11.37;62.32;100446.28;5043687;28;20050;-89
2021/11/07 10:18:05;;;;;;;18.60;10.70;;;;;;;11.54;62.67;100451.50;5046894;28;20131;-90
2021/11/07 10:20:46;;;;;;;18.88;11.55;;;;;;;11.42;63.44;100454.75;5050402;28;20037;-90
2021/11/07 10:23:22;;;;;;;16.88;11.73;;;;;;;11.42;64.33;100451.28;5064800;28;20049;-88
2021/11/07 10:26:12;;;;;;;16.85;11.13;;;;;;;11.26;66.47;100445.97;5050359;28;20158;-89
2021/11/07 10:28:55;;;;;;;11.45;9.95;;;;;;;11.26;67.16;100438.16;5049770;28;20811;-86
2021/11/07 10:31:45;;;;;;;9.68;8.68;;;;;;;11.37;67.10;100438.47;5051087;28;20126;-86
2021/11/07 10:34:52;;;;;;;11.63;8.95;;;;;;;11.34;68.42;100438.59;5046148;28;20049;-92
2021/11/07 10:37:40;;;;;;;13.25;9.65;;;;;;;11.28;70.75;100423.25;5052886;28;20045;-86
2021/11/07 10:46:38;;;;;;;11.27;9.55;;;;;;;11.66;68.67;100410.84;5053052;28;20032;-95
2021/11/07 10:52:20;;;;;;;12.45;11.15;;;;;;;11.39;67.89;100404.44;5049776;28;20119;-94
2021/11/07 10:54:47;;;;;;;31.70;26.15;;;;;;;11.61;67.35;100393.75;5047504;28;20045;-95
2021/11/07 10:57:17;;;;;;;15.07;12.90;;;;;;;11.57;65.69;100392.25;5052291;28;20055;-94
2021/11/07 11:00:12;;;;;;;10.45;9.45;;;;;;;11.33;66.17;100403.00;5052051;28;20052;-92
2021/11/07 11:02:41;;;;;;;;;;;;;;;11.38;65.70;100401.00;5056568;28;20117;-94
2021/11/07 11:05:18;;;;;;;13.63;11.35;;;;;;;11.53;66.57;100381.09;5050792;28;19920;-93
2021/11/07 11:07:56;;;;;;;16.13;11.27;;;;;;;11.42;68.25;100389.47;5048611;28;20400;-93
2021/11/07 11:10:32;;;;;;;25.25;17.20;;;;;;;11.37;64.43;100393.25;5053732;28;20060;-92
2021/11/07 11:13:21;;;;;;;11.75;9.85;;;;;;;11.53;64.86;100389.78;5052217;28;20063;-92
2021/11/07 11:27:13;;;;;;;13.45;9.20;;;;;;;11.95;60.29;100383.25;5056898;28;20048;-93
2021/11/07 11:35:17;;;;;;;12.43;9.23;;;;;;;11.48;63.69;100373.50;5066545;28;20041;-91
2021/11/07 11:43:25;;;;;;;9.90;8.77;;;;;;;11.36;62.47;100348.03;5047429;28;20098;-93
2021/11/07 11:46:03;;;;;;;13.27;9.25;;;;;;;11.54;62.90;100343.63;5067965;28;20045;-93
2021/11/07 11:49:00;;;;;;;11.35;9.88;;;;;;;11.28;63.75;100339.75;5055308;28;20051;-94
2021/11/07 11:51:37;;;;;;;12.70;9.88;;;;;;;11.44;63.51;100335.41;5051417;28;20052;-90
2021/11/07 11:54:42;;;;;;;12.60;10.63;;;;;;;11.30;64.27;100324.88;5055227;28;20045;-92
2021/11/07 11:57:26;;;;;;;14.10;11.00;;;;;;;11.49;64.38;100307.31;5035868;28;20046;-92
2021/11/07 12:02:38;;;;;;;11.27;10.07;;;;;;;11.61;64.26;100308.44;5055838;28;20299;-93
2021/11/07 12:05:23;;;;;;;12.35;10.90;;;;;;;11.97;64.08;100297.78;5054564;28;20534;-91
2021/11/07 12:13:42;;;;;;;11.80;10.27;;;;;;;11.72;64.56;100282.59;5055531;28;20075;-91
2021/11/07 12:16:26;;;;;;;12.80;10.75;;;;;;;11.84;62.66;100278.50;5041104;28;20433;-91
2021/11/07 12:19:04;;;;;;;11.38;9.77;;;;;;;11.52;63.61;100273.22;5054385;28;20223;-90
2021/11/07 12:22:00;;;;;;;10.85;8.07;;;;;;;11.79;61.09;100286.56;5055190;28;20124;-92
2021/11/07 12:24:35;;;;;;;12.98;11.68;;;;;;;11.77;60.98;100272.75;5053711;28;20037;-92
2021/11/07 12:27:20;;;;;;;13.90;10.73;;;;;;;11.72;62.74;100269.53;5055402;28;20045;-94
2021/11/07 12:29:54;;;;;;;16.00;10.65;;;;;;;11.77;62.53;100269.25;5054462;28;20158;-95
2021/11/07 12:32:34;;;;;;;11.23;10.15;;;;;;;11.55;63.50;100259.97;5044741;28;20045;-93
2021/11/07 12:40:59;;;;;;;11.90;9.30;;;;;;;11.99;61.62;100243.72;5054253;28;20045;-93
2021/11/07 12:43:38;;;;;;;11.85;9.88;;;;;;;11.99;62.56;100232.41;5053924;28;20095;-94
2021/11/07 12:49:13;;;;;;;10.93;9.45;;;;;;;11.61;63.68;100229.25;5052137;28;20102;-96
2021/11/07 12:51:45;;;;;;;14.95;10.73;;;;;;;12.16;62.86;100236.69;5055024;28;20120;-88
2021/11/07 12:54:15;;;;;;;13.70;10.52;;;;;;;12.12;64.81;100233.41;5053714;28;20049;-89
2021/11/07 12:56:45;;;;;;;11.13;9.88;;;;;;;11.60;64.70;100224.97;5052493;28;20048;-91
2021/11/07 12:59:18;;;;;;;13.40;10.65;;;;;;;11.98;64.38;100212.41;5052592;28;20068;-92
2021/11/07 13:02:02;;;;;;;10.98;9.40;;;;;;;12.14;64.67;100209.78;5048969;28;20047;-83
2021/11/07 13:04:42;;;;;;;13.40;11.10;;;;;;;12.01;64.95;100200.03;5050310;28;20044;-85
2021/11/07 13:07:12;;;;;;;13.10;10.48;;;;;;;12.54;63.99;100197.88;5048443;28;20483;-82
2021/11/07 13:09:47;;;;;;;10.75;9.40;;;;;;;12.76;60.67;100207.91;5050685;28;20043;-90
2021/11/07 13:12:41;;;;;;;11.48;9.95;;;;;;;13.12;60.51;100207.47;5046927;28;20068;-83
2021/11/07 13:18:11;;;;;;;13.75;9.68;;;;;;;13.23;59.50;100186.75;5050521;28;20099;-84
2021/11/07 13:26:38;;;;;;;12.07;10.43;;;;;;;12.79;61.39;100177.19;5046461;28;20671;-82
2021/11/07 13:29:20;;;;;;;15.02;10.70;;;;;;;12.99;60.00;100162.03;5049989;28;20352;-83
2021/11/07 13:32:03;;;;;;;9.88;7.72;;;;;;;13.09;59.36;100161.38;5051961;28;20095;-90
2021/11/07 13:34:30;;;;;;;10.55;8.00;;;;;;;13.26;58.48;100151.66;5054052;28;20119;-93
2021/11/07 13:36:59;;;;;;;10.82;8.13;;;;;;;13.37;58.33;100159.72;5069925;28;20060;-93
2021/11/07 13:39:33;;;;;;;12.60;8.68;;;;;;;12.91;59.19;100144.19;5072492;28;20048;-93
2021/11/07 13:42:11;;;;;;;10.38;8.27;;;;;;;12.40;59.86;100138.53;5072076;28;20061;-93
2021/11/07 13:44:46;;;;;;;10.82;8.60;;;;;;;12.91;59.82;100132.91;5064157;28;20127;-93
2021/11/07 13:47:13;;;;;;;11.05;8.35;;;;;;;13.00;59.91;100133.19;5056684;28;20037;-94
2021/11/07 13:50:08;;;;;;;11.15;7.82;;;;;;;13.10;58.95;100136.03;5057041;28;20049;-94